Andrews, SC

9:08 AM EDT on July 30, 2014 (GMT -0400)
Spring Gully (KSCGEORG8) Elev 20 ft | 33.38 °N, 79.42 °W | Change Station

Current weather conditions updated 8 minutes ago

Scattered Clouds
Scattered Clouds
79.0 °F
Feels Like 83 °F
N
0.0
Wind Variable Wind from SSE
Gusts 3.0 mph

Today is forecast to be Cooler than yesterday.

Today
High -- | Low -- °F
--% Chance of Precip.
Yesterday
High -- | Low -- °F
Precip. -- in
6:29 AM 8:19 PM
Waxing Crescent, 11% visible
Pressure 30.01 in
Visibility 10.0 miles
Clouds Scattered Clouds 2400 ft
Heat Index 83 °F
Dew Point 75 °F
Humidity 86%
Rainfall 0.00 in
Snow Depth Not available.
UV 2 out of 12
Pollen 4.20 out of 12
Air Quality Not available.
Flu Activity Not available.
METAR KGGE 301255Z AUTO 07005KT 10SM SCT024 26/23 A3001 RMK AO2

More Conditions Fewer Conditions

Pressure 30.01 in
Visibility 10.0 miles
Clouds Scattered Clouds 2400 ft
Heat Index 83 °F
Dew Point 75 °F
Humidity 86%
Rainfall 0.00 in
Snow Depth Not available.
UV 2 out of 12
Pollen 4.20 out of 12
Air Quality Not available.
Flu Activity Not available.
METAR KGGE 301255Z AUTO 07005KT 10SM SCT024 26/23 A3001 RMK AO2

More Conditions Fewer Conditions

10-Day Weather Forecast

Almanac

Astronomy

Jul. 30, 2014 Rise Set
Actual Time 6:29 AM EDT 8:19 PM EDT
Civil Twilight 6:02 AM EDT 8:46 PM EDT
Nautical Twilight 5:29 AM EDT 9:19 PM EDT
Astronomical Twilight 4:53 AM EDT 9:54 PM EDT
Moon 9:46 AM EDT 10:15 PM EDT
Length of Visible Light 14h 44m
Length of Day
13h 50m
Tomorrow will be 1m 30s shorter.
Waxing Crescent, 11% of the Moon is Illuminated
Today
Waxing Crescent
Aug 3
First Quarter
Aug 10
Full
Aug 17
Last Quarter
Aug 25
New

Today's Extremes

State Highs State Lows

Community

WunderPhotos

Upload Photos

1,739,071 photos uploaded!

Nearby

Snow Depth

Station Depth Elevation
No new snow has been reported.

Earthquake Activity

City Distance Mag. Time & Date
No recent earthquake activity has been reported nearby.
Minimum magnitude displayed is 2.5.

Coastal Water Temperatures

Place Temperature
Springmaid Pier, SC 82.9 °F

Nearby Weather Stations

Station Location Temp. Heat Index Dew Point Humidity Wind Precip. Elev Updated Type
Spring Gully, Georgetown, SC 79.0 °F 83 °F 75 °F 86% SSE  at  0.0 mph 0.00 in / hr 20 ft 8:59 AM EDT Normal
Debordieu, Georgetown, SC 80.8 °F 86 °F 74 °F 79% ENE  at  0.0 mph 0.00 in / hr 36 ft 9:05 AM EDT Normal

Show More Stations Show Fewer Stations